sensor_id;sensor_type;location;lat;lon;timestamp;P1;durP1;ratioP1;P2;durP2;ratioP2
2055;SDS011;1033;52.560;13.374;2022-11-15T00:02:12;56.05;;;30.50;;
2055;SDS011;1033;52.560;13.374;2022-11-15T00:05:00;45.08;;;28.00;;
2055;SDS011;1033;52.560;13.374;2022-11-15T00:07:47;47.45;;;30.73;;
2055;SDS011;1033;52.560;13.374;2022-11-15T00:10:40;43.58;;;25.65;;
2055;SDS011;1033;52.560;13.374;2022-11-15T00:13:27;49.35;;;29.40;;
2055;SDS011;1033;52.560;13.374;2022-11-15T00:16:16;43.45;;;27.02;;
2055;SDS011;1033;52.560;13.374;2022-11-15T00:19:04;41.85;;;24.45;;
2055;SDS011;1033;52.560;13.374;2022-11-15T00:21:52;41.10;;;25.88;;
2055;SDS011;1033;52.560;13.374;2022-11-15T00:24:40;48.35;;;27.13;;
2055;SDS011;1033;52.560;13.374;2022-11-15T00:27:27;41.33;;;26.00;;
2055;SDS011;1033;52.560;13.374;2022-11-15T00:30:15;59.47;;;30.67;;
2055;SDS011;1033;52.560;13.374;2022-11-15T00:33:03;42.45;;;26.80;;
2055;SDS011;1033;52.560;13.374;2022-11-15T00:35:54;41.05;;;26.60;;
2055;SDS011;1033;52.560;13.374;2022-11-15T00:38:47;47.45;;;28.58;;
2055;SDS011;1033;52.560;13.374;2022-11-15T00:41:35;47.65;;;28.23;;
2055;SDS011;1033;52.560;13.374;2022-11-15T00:44:22;41.88;;;25.73;;
2055;SDS011;1033;52.560;13.374;2022-11-15T00:47:10;44.97;;;25.77;;
2055;SDS011;1033;52.560;13.374;2022-11-15T00:49:58;45.63;;;27.02;;
2055;SDS011;1033;52.560;13.374;2022-11-15T00:52:47;40.17;;;25.70;;
2055;SDS011;1033;52.560;13.374;2022-11-15T00:55:40;43.17;;;25.52;;
2055;SDS011;1033;52.560;13.374;2022-11-15T00:58:30;44.47;;;26.25;;
2055;SDS011;1033;52.560;13.374;2022-11-15T01:01:18;37.78;;;24.40;;
2055;SDS011;1033;52.560;13.374;2022-11-15T01:04:06;41.70;;;24.55;;
2055;SDS011;1033;52.560;13.374;2022-11-15T01:06:53;49.88;;;27.67;;
2055;SDS011;1033;52.560;13.374;2022-11-15T01:09:46;50.60;;;26.88;;
2055;SDS011;1033;52.560;13.374;2022-11-15T01:12:33;41.78;;;28.08;;
2055;SDS011;1033;52.560;13.374;2022-11-15T01:15:21;42.88;;;26.25;;
2055;SDS011;1033;52.560;13.374;2022-11-15T01:18:09;47.70;;;28.42;;
2055;SDS011;1033;52.560;13.374;2022-11-15T01:20:57;50.75;;;26.83;;
2055;SDS011;1033;52.560;13.374;2022-11-15T01:23:45;45.60;;;27.73;;
2055;SDS011;1033;52.560;13.374;2022-11-15T01:26:34;49.08;;;27.42;;
2055;SDS011;1033;52.560;13.374;2022-11-15T01:29:22;44.90;;;25.92;;
2055;SDS011;1033;52.560;13.374;2022-11-15T01:32:09;44.78;;;29.00;;
2055;SDS011;1033;52.560;13.374;2022-11-15T01:34:57;41.88;;;26.23;;
2055;SDS011;1033;52.560;13.374;2022-11-15T01:37:44;50.90;;;28.25;;
2055;SDS011;1033;52.560;13.374;2022-11-15T01:40:32;43.28;;;26.88;;
2055;SDS011;1033;52.560;13.374;2022-11-15T01:43:23;50.92;;;26.58;;
2055;SDS011;1033;52.560;13.374;2022-11-15T01:46:24;45.72;;;27.75;;
2055;SDS011;1033;52.560;13.374;2022-11-15T01:49:18;50.80;;;26.65;;
2055;SDS011;1033;52.560;13.374;2022-11-15T01:52:09;44.72;;;26.77;;
2055;SDS011;1033;52.560;13.374;2022-11-15T01:55:04;45.45;;;27.45;;
2055;SDS011;1033;52.560;13.374;2022-11-15T01:57:58;41.92;;;25.00;;
2055;SDS011;1033;52.560;13.374;2022-11-15T02:00:51;43.60;;;25.67;;
2055;SDS011;1033;52.560;13.374;2022-11-15T02:03:40;45.85;;;27.27;;
2055;SDS011;1033;52.560;13.374;2022-11-15T02:06:38;54.10;;;29.05;;
2055;SDS011;1033;52.560;13.374;2022-11-15T02:09:27;44.58;;;26.35;;
2055;SDS011;1033;52.560;13.374;2022-11-15T02:12:16;48.05;;;27.17;;
2055;SDS011;1033;52.560;13.374;2022-11-15T02:15:08;44.28;;;25.38;;
2055;SDS011;1033;52.560;13.374;2022-11-15T02:18:02;50.63;;;28.02;;
2055;SDS011;1033;52.560;13.374;2022-11-15T02:21:07;43.58;;;26.50;;
2055;SDS011;1033;52.560;13.374;2022-11-15T02:24:24;39.17;;;25.50;;
2055;SDS011;1033;52.560;13.374;2022-11-15T02:27:53;49.25;;;26.70;;
2055;SDS011;1033;52.560;13.374;2022-11-15T02:31:17;35.63;;;23.38;;
2055;SDS011;1033;52.560;13.374;2022-11-15T02:34:18;40.30;;;27.52;;
2055;SDS011;1033;52.560;13.374;2022-11-15T02:37:19;51.42;;;27.30;;
2055;SDS011;1033;52.560;13.374;2022-11-15T02:40:20;42.28;;;23.52;;
2055;SDS011;1033;52.560;13.374;2022-11-15T02:43:24;47.75;;;27.52;;
2055;SDS011;1033;52.560;13.374;2022-11-15T02:46:38;43.58;;;26.38;;
2055;SDS011;1033;52.560;13.374;2022-11-15T02:49:47;45.22;;;27.77;;
2055;SDS011;1033;52.560;13.374;2022-11-15T02:52:39;39.55;;;25.52;;
2055;SDS011;1033;52.560;13.374;2022-11-15T02:55:35;55.72;;;32.92;;
2055;SDS011;1033;52.560;13.374;2022-11-15T02:58:30;52.95;;;27.60;;
2055;SDS011;1033;52.560;13.374;2022-11-15T03:01:48;54.38;;;27.77;;
2055;SDS011;1033;52.560;13.374;2022-11-15T03:04:56;49.65;;;25.50;;
2055;SDS011;1033;52.560;13.374;2022-11-15T03:07:52;44.35;;;25.67;;
2055;SDS011;1033;52.560;13.374;2022-11-15T03:10:56;46.53;;;26.05;;
2055;SDS011;1033;52.560;13.374;2022-11-15T03:13:54;40.95;;;24.75;;
2055;SDS011;1033;52.560;13.374;2022-11-15T03:16:49;45.15;;;25.98;;
2055;SDS011;1033;52.560;13.374;2022-11-15T03:19:47;52.10;;;26.50;;
2055;SDS011;1033;52.560;13.374;2022-11-15T03:22:40;49.95;;;27.88;;
2055;SDS011;1033;52.560;13.374;2022-11-15T03:25:33;42.17;;;25.10;;
2055;SDS011;1033;52.560;13.374;2022-11-15T03:28:30;42.20;;;26.50;;
2055;SDS011;1033;52.560;13.374;2022-11-15T03:31:30;40.08;;;25.00;;
2055;SDS011;1033;52.560;13.374;2022-11-15T03:34:38;37.75;;;25.50;;
2055;SDS011;1033;52.560;13.374;2022-11-15T03:37:30;45.10;;;27.85;;
2055;SDS011;1033;52.560;13.374;2022-11-15T03:40:24;37.13;;;23.20;;
2055;SDS011;1033;52.560;13.374;2022-11-15T03:43:22;47.60;;;28.08;;
2055;SDS011;1033;52.560;13.374;2022-11-15T03:46:23;41.65;;;24.77;;
2055;SDS011;1033;52.560;13.374;2022-11-15T03:49:22;41.55;;;24.95;;
2055;SDS011;1033;52.560;13.374;2022-11-15T03:52:18;39.97;;;24.23;;
2055;SDS011;1033;52.560;13.374;2022-11-15T03:55:09;45.25;;;25.23;;
2055;SDS011;1033;52.560;13.374;2022-11-15T03:58:01;44.78;;;23.65;;
2055;SDS011;1033;52.560;13.374;2022-11-15T04:00:49;43.53;;;25.02;;
2055;SDS011;1033;52.560;13.374;2022-11-15T04:03:38;42.35;;;24.10;;
2055;SDS011;1033;52.560;13.374;2022-11-15T04:06:26;44.13;;;24.13;;
2055;SDS011;1033;52.560;13.374;2022-11-15T04:09:15;42.38;;;24.90;;
2055;SDS011;1033;52.560;13.374;2022-11-15T04:12:03;46.17;;;26.52;;
2055;SDS011;1033;52.560;13.374;2022-11-15T04:14:51;51.47;;;26.00;;
2055;SDS011;1033;52.560;13.374;2022-11-15T04:17:49;45.70;;;24.85;;
2055;SDS011;1033;52.560;13.374;2022-11-15T04:20:39;39.72;;;24.05;;
2055;SDS011;1033;52.560;13.374;2022-11-15T04:23:44;39.13;;;23.77;;
2055;SDS011;1033;52.560;13.374;2022-11-15T04:26:46;41.05;;;22.88;;
2055;SDS011;1033;52.560;13.374;2022-11-15T04:29:33;50.08;;;27.30;;
2055;SDS011;1033;52.560;13.374;2022-11-15T04:32:21;41.50;;;22.88;;
2055;SDS011;1033;52.560;13.374;2022-11-15T04:35:10;44.78;;;24.75;;
2055;SDS011;1033;52.560;13.374;2022-11-15T04:37:58;35.70;;;22.48;;
2055;SDS011;1033;52.560;13.374;2022-11-15T04:40:46;41.92;;;27.08;;
2055;SDS011;1033;52.560;13.374;2022-11-15T04:43:34;37.53;;;22.05;;
2055;SDS011;1033;52.560;13.374;2022-11-15T04:46:21;42.55;;;24.27;;
2055;SDS011;1033;52.560;13.374;2022-11-15T04:49:09;38.65;;;23.38;;
2055;SDS011;1033;52.560;13.374;2022-11-15T04:51:57;37.83;;;21.13;;
2055;SDS011;1033;52.560;13.374;2022-11-15T04:54:46;38.95;;;24.00;;
2055;SDS011;1033;52.560;13.374;2022-11-15T04:57:33;32.50;;;24.40;;
2055;SDS011;1033;52.560;13.374;2022-11-15T05:00:21;46.95;;;25.13;;
2055;SDS011;1033;52.560;13.374;2022-11-15T05:03:08;38.50;;;26.50;;
2055;SDS011;1033;52.560;13.374;2022-11-15T05:06:14;42.88;;;23.95;;
2055;SDS011;1033;52.560;13.374;2022-11-15T05:09:03;36.90;;;22.20;;
2055;SDS011;1033;52.560;13.374;2022-11-15T05:11:51;40.50;;;23.10;;
2055;SDS011;1033;52.560;13.374;2022-11-15T05:14:38;39.50;;;23.35;;
2055;SDS011;1033;52.560;13.374;2022-11-15T05:17:26;32.15;;;21.70;;
2055;SDS011;1033;52.560;13.374;2022-11-15T05:20:13;47.67;;;23.65;;
2055;SDS011;1033;52.560;13.374;2022-11-15T05:23:00;35.03;;;21.85;;
2055;SDS011;1033;52.560;13.374;2022-11-15T05:25:49;39.17;;;23.08;;
2055;SDS011;1033;52.560;13.374;2022-11-15T05:28:37;39.65;;;24.85;;
2055;SDS011;1033;52.560;13.374;2022-11-15T05:31:24;42.03;;;23.58;;
2055;SDS011;1033;52.560;13.374;2022-11-15T05:34:12;41.13;;;22.02;;
2055;SDS011;1033;52.560;13.374;2022-11-15T05:37:00;33.17;;;20.65;;
2055;SDS011;1033;52.560;13.374;2022-11-15T05:39:47;36.72;;;21.95;;
2055;SDS011;1033;52.560;13.374;2022-11-15T05:42:36;39.85;;;24.25;;
2055;SDS011;1033;52.560;13.374;2022-11-15T05:45:24;36.92;;;22.50;;
2055;SDS011;1033;52.560;13.374;2022-11-15T05:48:11;39.10;;;23.70;;
2055;SDS011;1033;52.560;13.374;2022-11-15T05:51:00;37.05;;;23.50;;
2055;SDS011;1033;52.560;13.374;2022-11-15T05:53:50;38.70;;;21.45;;
2055;SDS011;1033;52.560;13.374;2022-11-15T05:56:42;44.08;;;25.23;;
2055;SDS011;1033;52.560;13.374;2022-11-15T05:59:31;38.67;;;22.65;;
2055;SDS011;1033;52.560;13.374;2022-11-15T06:02:21;36.58;;;23.13;;
2055;SDS011;1033;52.560;13.374;2022-11-15T06:05:09;38.92;;;22.95;;
2055;SDS011;1033;52.560;13.374;2022-11-15T06:07:57;40.80;;;25.63;;
2055;SDS011;1033;52.560;13.374;2022-11-15T06:10:45;40.13;;;26.08;;
2055;SDS011;1033;52.560;13.374;2022-11-15T06:13:32;38.50;;;23.50;;
2055;SDS011;1033;52.560;13.374;2022-11-15T06:16:21;41.38;;;25.55;;
2055;SDS011;1033;52.560;13.374;2022-11-15T06:19:09;35.20;;;20.88;;
2055;SDS011;1033;52.560;13.374;2022-11-15T06:21:56;38.00;;;23.15;;
2055;SDS011;1033;52.560;13.374;2022-11-15T06:24:44;44.03;;;22.80;;
2055;SDS011;1033;52.560;13.374;2022-11-15T06:27:32;42.35;;;24.48;;
2055;SDS011;1033;52.560;13.374;2022-11-15T06:30:19;40.47;;;23.58;;
2055;SDS011;1033;52.560;13.374;2022-11-15T06:33:08;38.85;;;24.35;;
2055;SDS011;1033;52.560;13.374;2022-11-15T06:35:59;44.42;;;24.10;;
2055;SDS011;1033;52.560;13.374;2022-11-15T06:38:49;39.20;;;23.23;;
2055;SDS011;1033;52.560;13.374;2022-11-15T06:41:36;37.08;;;23.20;;
2055;SDS011;1033;52.560;13.374;2022-11-15T06:44:23;46.70;;;24.80;;
2055;SDS011;1033;52.560;13.374;2022-11-15T06:47:10;38.38;;;24.48;;
2055;SDS011;1033;52.560;13.374;2022-11-15T06:50:00;35.15;;;23.00;;
2055;SDS011;1033;52.560;13.374;2022-11-15T06:52:47;40.55;;;23.80;;
2055;SDS011;1033;52.560;13.374;2022-11-15T06:55:34;33.65;;;23.25;;
2055;SDS011;1033;52.560;13.374;2022-11-15T06:58:22;37.50;;;23.45;;
2055;SDS011;1033;52.560;13.374;2022-11-15T07:01:12;36.67;;;22.45;;
2055;SDS011;1033;52.560;13.374;2022-11-15T07:04:00;41.42;;;24.77;;
2055;SDS011;1033;52.560;13.374;2022-11-15T07:06:49;40.95;;;24.42;;
2055;SDS011;1033;52.560;13.374;2022-11-15T07:09:36;41.90;;;25.38;;
2055;SDS011;1033;52.560;13.374;2022-11-15T07:12:23;39.13;;;24.88;;
2055;SDS011;1033;52.560;13.374;2022-11-15T07:15:11;48.22;;;24.48;;
2055;SDS011;1033;52.560;13.374;2022-11-15T07:18:00;45.38;;;24.58;;
2055;SDS011;1033;52.560;13.374;2022-11-15T07:20:47;37.72;;;25.88;;
2055;SDS011;1033;52.560;13.374;2022-11-15T07:23:37;36.35;;;22.27;;
2055;SDS011;1033;52.560;13.374;2022-11-15T07:26:25;39.05;;;25.60;;
2055;SDS011;1033;52.560;13.374;2022-11-15T07:29:13;38.38;;;24.80;;
2055;SDS011;1033;52.560;13.374;2022-11-15T07:32:03;35.83;;;21.02;;
2055;SDS011;1033;52.560;13.374;2022-11-15T07:34:51;34.58;;;21.55;;
2055;SDS011;1033;52.560;13.374;2022-11-15T07:37:39;35.45;;;21.77;;
2055;SDS011;1033;52.560;13.374;2022-11-15T07:40:30;39.58;;;24.17;;
2055;SDS011;1033;52.560;13.374;2022-11-15T07:43:19;30.83;;;21.42;;
2055;SDS011;1033;52.560;13.374;2022-11-15T07:46:45;35.35;;;22.00;;
2055;SDS011;1033;52.560;13.374;2022-11-15T07:49:51;43.25;;;20.52;;
2055;SDS011;1033;52.560;13.374;2022-11-15T07:52:42;37.50;;;22.52;;
2055;SDS011;1033;52.560;13.374;2022-11-15T07:55:34;33.75;;;20.92;;
2055;SDS011;1033;52.560;13.374;2022-11-15T07:58:24;36.80;;;23.77;;
2055;SDS011;1033;52.560;13.374;2022-11-15T08:01:17;47.65;;;22.63;;
2055;SDS011;1033;52.560;13.374;2022-11-15T08:04:06;36.42;;;20.35;;
2055;SDS011;1033;52.560;13.374;2022-11-15T08:07:00;87.57;;;37.20;;
2055;SDS011;1033;52.560;13.374;2022-11-15T08:09:48;32.95;;;22.02;;
2055;SDS011;1033;52.560;13.374;2022-11-15T08:12:43;39.72;;;22.88;;
2055;SDS011;1033;52.560;13.374;2022-11-15T08:15:31;27.35;;;19.13;;
2055;SDS011;1033;52.560;13.374;2022-11-15T08:18:21;34.35;;;22.58;;
2055;SDS011;1033;52.560;13.374;2022-11-15T08:21:09;34.58;;;20.85;;
2055;SDS011;1033;52.560;13.374;2022-11-15T08:24:02;35.90;;;22.27;;
2055;SDS011;1033;52.560;13.374;2022-11-15T08:26:52;31.20;;;20.58;;
2055;SDS011;1033;52.560;13.374;2022-11-15T08:32:33;33.22;;;21.40;;
2055;SDS011;1033;52.560;13.374;2022-11-15T08:35:22;29.42;;;20.50;;
2055;SDS011;1033;52.560;13.374;2022-11-15T08:38:13;39.47;;;23.05;;
2055;SDS011;1033;52.560;13.374;2022-11-15T08:41:02;31.40;;;18.87;;
2055;SDS011;1033;52.560;13.374;2022-11-15T08:43:51;34.65;;;20.30;;
2055;SDS011;1033;52.560;13.374;2022-11-15T08:46:41;29.50;;;18.35;;
2055;SDS011;1033;52.560;13.374;2022-11-15T08:49:32;40.13;;;22.57;;
2055;SDS011;1033;52.560;13.374;2022-11-15T08:52:22;31.57;;;21.00;;
2055;SDS011;1033;52.560;13.374;2022-11-15T08:55:11;32.38;;;20.55;;
2055;SDS011;1033;52.560;13.374;2022-11-15T08:58:02;28.27;;;21.10;;
2055;SDS011;1033;52.560;13.374;2022-11-15T09:00:51;30.03;;;19.87;;
2055;SDS011;1033;52.560;13.374;2022-11-15T09:03:41;33.53;;;23.30;;
2055;SDS011;1033;52.560;13.374;2022-11-15T09:06:29;29.70;;;20.40;;
2055;SDS011;1033;52.560;13.374;2022-11-15T09:09:17;28.13;;;22.07;;
2055;SDS011;1033;52.560;13.374;2022-11-15T09:12:06;27.60;;;18.37;;
2055;SDS011;1033;52.560;13.374;2022-11-15T09:14:54;35.50;;;20.50;;
2055;SDS011;1033;52.560;13.374;2022-11-15T09:17:43;30.23;;;18.43;;
2055;SDS011;1033;52.560;13.374;2022-11-15T09:20:33;26.57;;;18.87;;
2055;SDS011;1033;52.560;13.374;2022-11-15T09:23:21;36.70;;;19.53;;
2055;SDS011;1033;52.560;13.374;2022-11-15T09:26:09;30.23;;;19.73;;
2055;SDS011;1033;52.560;13.374;2022-11-15T09:28:57;33.70;;;19.33;;
2055;SDS011;1033;52.560;13.374;2022-11-15T09:31:46;27.40;;;18.63;;
2055;SDS011;1033;52.560;13.374;2022-11-15T09:34:34;27.00;;;17.73;;
2055;SDS011;1033;52.560;13.374;2022-11-15T09:37:23;22.00;;;17.07;;
2055;SDS011;1033;52.560;13.374;2022-11-15T09:40:12;26.00;;;16.60;;
2055;SDS011;1033;52.560;13.374;2022-11-15T09:43:07;24.67;;;17.73;;
2055;SDS011;1033;52.560;13.374;2022-11-15T09:46:12;25.07;;;17.57;;
2055;SDS011;1033;52.560;13.374;2022-11-15T09:49:26;28.77;;;17.10;;
2055;SDS011;1033;52.560;13.374;2022-11-15T09:52:16;24.53;;;15.27;;
2055;SDS011;1033;52.560;13.374;2022-11-15T09:54:49;26.47;;;16.60;;
2055;SDS011;1033;52.560;13.374;2022-11-15T09:57:22;23.00;;;15.60;;
2055;SDS011;1033;52.560;13.374;2022-11-15T10:00:02;24.67;;;16.90;;
2055;SDS011;1033;52.560;13.374;2022-11-15T10:03:06;23.77;;;17.07;;
2055;SDS011;1033;52.560;13.374;2022-11-15T10:05:40;27.27;;;18.00;;
2055;SDS011;1033;52.560;13.374;2022-11-15T10:08:13;26.73;;;17.57;;
2055;SDS011;1033;52.560;13.374;2022-11-15T10:10:57;29.77;;;17.30;;
2055;SDS011;1033;52.560;13.374;2022-11-15T10:13:48;27.27;;;17.33;;
2055;SDS011;1033;52.560;13.374;2022-11-15T10:19:21;29.07;;;20.60;;
2055;SDS011;1033;52.560;13.374;2022-11-15T10:22:00;22.20;;;17.27;;
2055;SDS011;1033;52.560;13.374;2022-11-15T10:24:43;28.07;;;17.53;;
2055;SDS011;1033;52.560;13.374;2022-11-15T10:27:16;26.97;;;17.90;;
2055;SDS011;1033;52.560;13.374;2022-11-15T10:29:47;24.97;;;16.07;;
2055;SDS011;1033;52.560;13.374;2022-11-15T10:32:20;24.10;;;16.93;;
2055;SDS011;1033;52.560;13.374;2022-11-15T10:34:49;19.80;;;16.30;;
2055;SDS011;1033;52.560;13.374;2022-11-15T10:37:27;34.63;;;18.13;;
2055;SDS011;1033;52.560;13.374;2022-11-15T10:40:04;28.57;;;17.60;;
2055;SDS011;1033;52.560;13.374;2022-11-15T10:42:43;25.83;;;16.67;;
2055;SDS011;1033;52.560;13.374;2022-11-15T10:45:26;23.40;;;18.73;;
2055;SDS011;1033;52.560;13.374;2022-11-15T10:48:18;22.50;;;16.20;;
2055;SDS011;1033;52.560;13.374;2022-11-15T10:50:50;30.13;;;16.37;;
2055;SDS011;1033;52.560;13.374;2022-11-15T10:53:23;21.10;;;14.90;;
2055;SDS011;1033;52.560;13.374;2022-11-15T10:56:02;37.70;;;17.20;;
2055;SDS011;1033;52.560;13.374;2022-11-15T10:58:38;24.10;;;16.93;;
2055;SDS011;1033;52.560;13.374;2022-11-15T11:01:14;21.50;;;14.23;;
2055;SDS011;1033;52.560;13.374;2022-11-15T11:03:57;20.57;;;14.77;;
2055;SDS011;1033;52.560;13.374;2022-11-15T11:06:28;23.60;;;16.03;;
2055;SDS011;1033;52.560;13.374;2022-11-15T11:08:59;25.40;;;15.10;;
2055;SDS011;1033;52.560;13.374;2022-11-15T11:11:43;23.83;;;16.20;;
2055;SDS011;1033;52.560;13.374;2022-11-15T11:14:18;27.80;;;15.80;;
2055;SDS011;1033;52.560;13.374;2022-11-15T11:16:51;26.07;;;17.00;;
2055;SDS011;1033;52.560;13.374;2022-11-15T11:19:31;27.10;;;15.57;;
2055;SDS011;1033;52.560;13.374;2022-11-15T11:22:20;22.50;;;15.37;;
2055;SDS011;1033;52.560;13.374;2022-11-15T11:24:58;22.17;;;16.63;;
2055;SDS011;1033;52.560;13.374;2022-11-15T11:27:50;23.60;;;15.20;;
2055;SDS011;1033;52.560;13.374;2022-11-15T11:30:32;26.83;;;16.67;;
2055;SDS011;1033;52.560;13.374;2022-11-15T11:33:10;20.73;;;15.90;;
2055;SDS011;1033;52.560;13.374;2022-11-15T11:35:48;20.50;;;14.67;;
2055;SDS011;1033;52.560;13.374;2022-11-15T11:41:30;17.57;;;13.50;;
2055;SDS011;1033;52.560;13.374;2022-11-15T11:44:16;21.43;;;13.87;;
2055;SDS011;1033;52.560;13.374;2022-11-15T11:47:03;23.73;;;16.40;;
2055;SDS011;1033;52.560;13.374;2022-11-15T11:49:40;35.67;;;24.17;;
2055;SDS011;1033;52.560;13.374;2022-11-15T11:52:14;24.80;;;19.07;;
2055;SDS011;1033;52.560;13.374;2022-11-15T11:54:48;26.33;;;15.13;;
2055;SDS011;1033;52.560;13.374;2022-11-15T11:57:25;20.03;;;15.43;;
2055;SDS011;1033;52.560;13.374;2022-11-15T12:00:03;23.20;;;15.90;;
2055;SDS011;1033;52.560;13.374;2022-11-15T12:02:44;31.33;;;15.00;;
2055;SDS011;1033;52.560;13.374;2022-11-15T12:05:23;19.80;;;14.13;;
2055;SDS011;1033;52.560;13.374;2022-11-15T12:07:58;28.70;;;16.70;;
2055;SDS011;1033;52.560;13.374;2022-11-15T12:10:38;25.10;;;16.50;;
2055;SDS011;1033;52.560;13.374;2022-11-15T12:13:14;23.33;;;16.07;;
2055;SDS011;1033;52.560;13.374;2022-11-15T12:15:49;21.50;;;15.10;;
2055;SDS011;1033;52.560;13.374;2022-11-15T12:18:29;24.40;;;17.30;;
2055;SDS011;1033;52.560;13.374;2022-11-15T12:21:00;20.07;;;14.87;;
2055;SDS011;1033;52.560;13.374;2022-11-15T12:23:37;28.90;;;20.30;;
2055;SDS011;1033;52.560;13.374;2022-11-15T12:26:14;22.27;;;15.77;;
2055;SDS011;1033;52.560;13.374;2022-11-15T12:28:47;21.43;;;16.37;;
2055;SDS011;1033;52.560;13.374;2022-11-15T12:31:36;21.97;;;16.27;;
2055;SDS011;1033;52.560;13.374;2022-11-15T12:34:15;24.77;;;17.60;;
2055;SDS011;1033;52.560;13.374;2022-11-15T12:37:22;23.30;;;14.60;;
2055;SDS011;1033;52.560;13.374;2022-11-15T12:40:29;22.33;;;16.13;;
2055;SDS011;1033;52.560;13.374;2022-11-15T12:46:04;26.03;;;17.23;;
2055;SDS011;1033;52.560;13.374;2022-11-15T12:54:50;24.83;;;15.70;;
2055;SDS011;1033;52.560;13.374;2022-11-15T12:57:41;22.77;;;16.40;;
2055;SDS011;1033;52.560;13.374;2022-11-15T13:03:17;20.40;;;15.17;;
2055;SDS011;1033;52.560;13.374;2022-11-15T13:05:58;22.30;;;15.10;;
2055;SDS011;1033;52.560;13.374;2022-11-15T13:08:48;18.33;;;14.63;;
2055;SDS011;1033;52.560;13.374;2022-11-15T13:14:37;24.37;;;16.70;;
2055;SDS011;1033;52.560;13.374;2022-11-15T13:21:18;21.27;;;14.50;;
2055;SDS011;1033;52.560;13.374;2022-11-15T13:24:13;25.10;;;15.83;;
2055;SDS011;1033;52.560;13.374;2022-11-15T13:26:54;21.80;;;16.63;;
2055;SDS011;1033;52.560;13.374;2022-11-15T13:29:24;22.00;;;16.53;;
2055;SDS011;1033;52.560;13.374;2022-11-15T13:31:54;20.50;;;14.30;;
2055;SDS011;1033;52.560;13.374;2022-11-15T13:34:27;19.30;;;15.70;;
2055;SDS011;1033;52.560;13.374;2022-11-15T13:37:29;22.23;;;13.97;;
2055;SDS011;1033;52.560;13.374;2022-11-15T13:40:18;21.00;;;14.93;;
2055;SDS011;1033;52.560;13.374;2022-11-15T13:42:57;17.67;;;14.37;;
2055;SDS011;1033;52.560;13.374;2022-11-15T13:45:26;15.87;;;12.93;;
2055;SDS011;1033;52.560;13.374;2022-11-15T13:47:56;19.80;;;14.90;;
2055;SDS011;1033;52.560;13.374;2022-11-15T13:50:26;20.27;;;13.20;;
2055;SDS011;1033;52.560;13.374;2022-11-15T13:53:00;17.00;;;13.97;;
2055;SDS011;1033;52.560;13.374;2022-11-15T13:55:33;20.40;;;14.37;;
2055;SDS011;1033;52.560;13.374;2022-11-15T13:58:03;21.03;;;14.00;;
2055;SDS011;1033;52.560;13.374;2022-11-15T14:00:35;21.67;;;13.30;;
2055;SDS011;1033;52.560;13.374;2022-11-15T14:03:07;29.37;;;14.17;;
2055;SDS011;1033;52.560;13.374;2022-11-15T14:05:43;20.30;;;13.63;;
2055;SDS011;1033;52.560;13.374;2022-11-15T14:08:28;19.60;;;14.17;;
2055;SDS011;1033;52.560;13.374;2022-11-15T14:11:09;18.47;;;14.40;;
2055;SDS011;1033;52.560;13.374;2022-11-15T14:16:42;18.03;;;12.67;;
2055;SDS011;1033;52.560;13.374;2022-11-15T14:22:08;20.13;;;13.63;;
2055;SDS011;1033;52.560;13.374;2022-11-15T14:24:43;22.93;;;14.57;;
2055;SDS011;1033;52.560;13.374;2022-11-15T14:27:21;23.73;;;14.30;;
2055;SDS011;1033;52.560;13.374;2022-11-15T14:29:53;23.60;;;13.70;;
2055;SDS011;1033;52.560;13.374;2022-11-15T14:32:23;19.07;;;15.97;;
2055;SDS011;1033;52.560;13.374;2022-11-15T14:34:54;19.33;;;14.33;;
2055;SDS011;1033;52.560;13.374;2022-11-15T14:37:25;17.77;;;15.37;;
2055;SDS011;1033;52.560;13.374;2022-11-15T14:39:58;19.20;;;13.43;;
2055;SDS011;1033;52.560;13.374;2022-11-15T14:42:28;19.87;;;15.70;;
2055;SDS011;1033;52.560;13.374;2022-11-15T14:44:58;22.37;;;14.43;;
2055;SDS011;1033;52.560;13.374;2022-11-15T14:47:27;24.37;;;14.50;;
2055;SDS011;1033;52.560;13.374;2022-11-15T14:49:56;24.53;;;16.53;;
2055;SDS011;1033;52.560;13.374;2022-11-15T14:52:26;21.70;;;14.90;;
2055;SDS011;1033;52.560;13.374;2022-11-15T14:55:00;22.57;;;14.07;;
2055;SDS011;1033;52.560;13.374;2022-11-15T14:57:31;20.23;;;15.60;;
2055;SDS011;1033;52.560;13.374;2022-11-15T15:00:01;22.03;;;17.10;;
2055;SDS011;1033;52.560;13.374;2022-11-15T15:02:41;21.80;;;14.57;;
2055;SDS011;1033;52.560;13.374;2022-11-15T15:05:13;30.30;;;16.83;;
2055;SDS011;1033;52.560;13.374;2022-11-15T15:07:44;24.27;;;14.33;;
2055;SDS011;1033;52.560;13.374;2022-11-15T15:10:14;33.33;;;18.80;;
2055;SDS011;1033;52.560;13.374;2022-11-15T15:13:08;27.07;;;17.73;;
2055;SDS011;1033;52.560;13.374;2022-11-15T15:15:45;33.93;;;18.00;;
2055;SDS011;1033;52.560;13.374;2022-11-15T15:18:15;21.27;;;16.10;;
2055;SDS011;1033;52.560;13.374;2022-11-15T15:20:48;32.33;;;18.00;;
2055;SDS011;1033;52.560;13.374;2022-11-15T15:23:26;25.03;;;17.53;;
2055;SDS011;1033;52.560;13.374;2022-11-15T15:25:57;25.33;;;16.63;;
2055;SDS011;1033;52.560;13.374;2022-11-15T15:28:29;27.83;;;17.90;;
2055;SDS011;1033;52.560;13.374;2022-11-15T15:31:00;25.70;;;17.00;;
2055;SDS011;1033;52.560;13.374;2022-11-15T15:33:29;29.40;;;18.90;;
2055;SDS011;1033;52.560;13.374;2022-11-15T15:35:58;27.27;;;19.57;;
2055;SDS011;1033;52.560;13.374;2022-11-15T15:38:27;30.93;;;17.50;;
2055;SDS011;1033;52.560;13.374;2022-11-15T15:40:57;30.57;;;19.90;;
2055;SDS011;1033;52.560;13.374;2022-11-15T15:43:30;23.40;;;16.60;;
2055;SDS011;1033;52.560;13.374;2022-11-15T15:46:03;20.47;;;15.20;;
2055;SDS011;1033;52.560;13.374;2022-11-15T15:48:34;25.20;;;17.27;;
2055;SDS011;1033;52.560;13.374;2022-11-15T15:51:06;34.73;;;19.67;;
2055;SDS011;1033;52.560;13.374;2022-11-15T15:53:45;26.90;;;19.60;;
2055;SDS011;1033;52.560;13.374;2022-11-15T15:56:15;28.50;;;18.97;;
2055;SDS011;1033;52.560;13.374;2022-11-15T15:58:45;32.17;;;19.10;;
2055;SDS011;1033;52.560;13.374;2022-11-15T16:01:14;31.67;;;22.03;;
2055;SDS011;1033;52.560;13.374;2022-11-15T16:03:44;29.47;;;20.13;;
2055;SDS011;1033;52.560;13.374;2022-11-15T16:09:12;27.93;;;20.13;;
2055;SDS011;1033;52.560;13.374;2022-11-15T16:11:43;30.63;;;19.90;;
2055;SDS011;1033;52.560;13.374;2022-11-15T16:14:15;28.47;;;19.40;;
2055;SDS011;1033;52.560;13.374;2022-11-15T16:16:44;26.43;;;17.47;;
2055;SDS011;1033;52.560;13.374;2022-11-15T16:19:13;30.10;;;19.60;;
2055;SDS011;1033;52.560;13.374;2022-11-15T16:21:42;26.80;;;17.60;;
2055;SDS011;1033;52.560;13.374;2022-11-15T16:24:11;26.47;;;19.03;;
2055;SDS011;1033;52.560;13.374;2022-11-15T16:26:40;30.20;;;20.27;;
2055;SDS011;1033;52.560;13.374;2022-11-15T16:29:09;30.13;;;20.50;;
2055;SDS011;1033;52.560;13.374;2022-11-15T16:31:40;29.07;;;20.10;;
2055;SDS011;1033;52.560;13.374;2022-11-15T16:34:09;37.97;;;22.57;;
2055;SDS011;1033;52.560;13.374;2022-11-15T16:36:38;28.50;;;20.87;;
2055;SDS011;1033;52.560;13.374;2022-11-15T16:39:10;32.00;;;22.37;;
2055;SDS011;1033;52.560;13.374;2022-11-15T16:41:43;35.73;;;23.17;;
2055;SDS011;1033;52.560;13.374;2022-11-15T16:44:13;28.90;;;21.00;;
2055;SDS011;1033;52.560;13.374;2022-11-15T16:46:44;33.40;;;21.40;;
2055;SDS011;1033;52.560;13.374;2022-11-15T16:49:18;35.07;;;24.07;;
2055;SDS011;1033;52.560;13.374;2022-11-15T16:51:49;36.97;;;22.60;;
2055;SDS011;1033;52.560;13.374;2022-11-15T16:54:18;36.50;;;22.50;;
2055;SDS011;1033;52.560;13.374;2022-11-15T16:56:47;53.37;;;35.00;;